createdAt,value
2023-03-13T00:01:48.064Z,3.14
2023-03-13T00:06:52.163Z,3.07
2023-03-13T00:11:58.257Z,3.16
2023-03-13T00:17:03.136Z,3.25
2023-03-13T00:22:07.319Z,3.30
2023-03-13T00:27:12.824Z,3.37
2023-03-13T00:32:17.063Z,3.42
2023-03-13T00:37:21.277Z,3.45
2023-03-13T00:42:26.618Z,3.51
2023-03-13T00:47:32.598Z,3.56
2023-03-13T00:52:36.523Z,3.60
2023-03-13T00:57:41.999Z,3.66
2023-03-13T01:02:46.207Z,3.73
2023-03-13T01:07:51.257Z,3.80
2023-03-13T01:12:56.579Z,3.85
2023-03-13T01:18:01.771Z,3.92
2023-03-13T01:23:05.655Z,3.97
2023-03-13T01:28:11.205Z,4.08
2023-03-13T01:33:15.462Z,4.12
2023-03-13T01:38:20.018Z,4.20
2023-03-13T01:43:27.820Z,4.25
2023-03-13T01:48:43.360Z,4.33
2023-03-13T01:53:51.004Z,4.41
2023-03-13T01:58:58.973Z,4.48
2023-03-13T02:04:04.649Z,4.57
2023-03-13T02:09:11.884Z,4.57
2023-03-13T02:14:17.955Z,4.62
2023-03-13T02:19:29.254Z,4.66
2023-03-13T02:24:37.044Z,4.71
2023-03-13T02:29:42.685Z,4.73
2023-03-13T02:34:49.075Z,4.77
2023-03-13T02:39:54.341Z,4.78
2023-03-13T02:44:59.872Z,4.83
2023-03-13T02:50:04.919Z,4.87
2023-03-13T02:55:11.892Z,4.87
2023-03-13T03:00:18.921Z,4.97
2023-03-13T03:05:23.590Z,4.98
2023-03-13T03:10:27.899Z,5.05
2023-03-13T03:15:33.485Z,5.06
2023-03-13T03:20:37.853Z,5.11
2023-03-13T03:25:41.805Z,5.15
2023-03-13T03:30:47.251Z,5.17
2023-03-13T03:35:51.915Z,5.22
2023-03-13T03:40:56.590Z,5.27
2023-03-13T03:46:02.495Z,5.29
2023-03-13T03:51:07.970Z,5.28
2023-03-13T03:56:16.385Z,5.28
2023-03-13T04:01:28.191Z,5.31
2023-03-13T04:06:32.776Z,5.32
2023-03-13T04:11:37.945Z,5.37
2023-03-13T04:16:45.227Z,5.36
2023-03-13T04:21:51.726Z,5.35
2023-03-13T04:26:56.920Z,5.37
2023-03-13T04:32:03.178Z,5.35
2023-03-13T04:37:33.732Z,5.39
2023-03-13T04:42:59.346Z,5.41
2023-03-13T04:48:23.899Z,5.41
2023-03-13T04:54:00.609Z,5.40
2023-03-13T04:59:15.901Z,5.41
2023-03-13T05:04:36.771Z,5.35
2023-03-13T05:09:59.469Z,5.41
2023-03-13T05:15:13.093Z,5.45
2023-03-13T05:20:33.282Z,5.50
2023-03-13T05:26:09.899Z,5.48
2023-03-13T05:31:41.030Z,5.55
2023-03-13T05:36:56.000Z,5.54
2023-03-13T05:42:29.356Z,5.61
2023-03-13T05:48:08.041Z,5.63
2023-03-13T05:53:42.891Z,5.70
2023-03-13T05:59:01.983Z,5.76
2023-03-13T06:04:21.884Z,5.83
2023-03-13T06:09:29.679Z,5.87
2023-03-13T06:14:34.681Z,5.95
2023-03-13T06:19:57.109Z,6.02
2023-03-13T06:25:02.402Z,6.11
2023-03-13T06:30:07.142Z,6.21
2023-03-13T06:35:11.550Z,6.35
2023-03-13T06:40:17.341Z,6.49
2023-03-13T06:45:21.742Z,6.55
2023-03-13T06:50:25.890Z,6.79
2023-03-13T06:55:31.492Z,7.04
2023-03-13T07:00:35.806Z,7.03
2023-03-13T07:05:40.083Z,7.08
2023-03-13T07:10:48.626Z,7.20
2023-03-13T07:15:52.739Z,7.20
2023-03-13T07:20:58.244Z,7.28
2023-03-13T07:26:05.704Z,7.41
2023-03-13T07:31:12.586Z,7.40
2023-03-13T07:36:17.732Z,7.52
2023-03-13T07:41:23.055Z,7.74
2023-03-13T07:46:27.355Z,8.03
2023-03-13T07:51:42.833Z,7.89
2023-03-13T07:56:49.009Z,7.77
2023-03-13T08:01:53.113Z,7.91
2023-03-13T08:06:57.431Z,8.17
2023-03-13T08:12:03.115Z,8.42
2023-03-13T08:17:07.457Z,8.68
2023-03-13T08:22:11.604Z,8.96
2023-03-13T08:27:17.077Z,9.17
2023-03-13T08:32:22.274Z,9.40
2023-03-13T08:37:26.186Z,9.68
2023-03-13T08:42:31.790Z,9.84
2023-03-13T08:47:36.254Z,10.06
2023-03-13T08:52:40.524Z,10.51
2023-03-13T08:57:46.412Z,10.48
2023-03-13T09:02:50.354Z,10.70
2023-03-13T09:07:55.328Z,10.98
2023-03-13T09:13:02.054Z,11.27
2023-03-13T09:18:06.594Z,11.20
2023-03-13T09:23:10.974Z,11.13
2023-03-13T09:28:16.621Z,11.39
2023-03-13T09:33:22.951Z,11.37
2023-03-13T09:38:27.461Z,11.55
2023-03-13T09:43:41.116Z,11.63
2023-03-13T09:48:47.169Z,11.74
2023-03-13T09:53:56.071Z,11.75
2023-03-13T09:59:10.810Z,11.90
2023-03-13T10:04:29.995Z,12.13
2023-03-13T10:09:34.885Z,12.17
2023-03-13T10:14:45.409Z,12.40
2023-03-13T10:19:55.276Z,12.35
2023-03-13T10:25:01.225Z,12.46
2023-03-13T10:30:08.091Z,12.76
2023-03-13T10:35:13.589Z,12.69
2023-03-13T10:40:23.944Z,13.01
2023-03-13T10:45:32.456Z,13.06
2023-03-13T10:50:37.529Z,12.96
2023-03-13T10:55:44.923Z,12.94
2023-03-13T11:00:50.674Z,12.74
2023-03-13T11:05:59.002Z,12.79
2023-03-13T11:11:04.423Z,13.16
2023-03-13T11:16:24.664Z,12.99
2023-03-13T11:21:35.510Z,13.31
2023-03-13T11:26:55.148Z,13.16
2023-03-13T11:32:17.460Z,13.22
2023-03-13T11:37:22.635Z,13.17
2023-03-13T11:43:17.800Z,13.16
2023-03-13T11:48:42.730Z,13.32
2023-03-13T11:54:05.371Z,13.35
2023-03-13T11:59:27.246Z,12.96
2023-03-13T12:04:36.979Z,12.90
2023-03-13T12:09:44.646Z,12.56
2023-03-13T12:14:53.835Z,12.43
2023-03-13T12:20:06.600Z,12.04
2023-03-13T12:25:14.291Z,11.71
2023-03-13T12:30:28.429Z,11.45
2023-03-13T12:35:34.282Z,11.18
2023-03-13T12:40:42.613Z,11.06
2023-03-13T12:45:56.394Z,10.87
2023-03-13T12:51:14.366Z,10.74
2023-03-13T12:56:39.584Z,10.51
2023-03-13T13:01:45.452Z,10.62
2023-03-13T13:07:02.629Z,10.78
2023-03-13T13:12:20.415Z,10.95
2023-03-13T13:18:00.806Z,11.04
2023-03-13T13:23:28.274Z,11.11
2023-03-13T13:28:36.525Z,11.26
2023-03-13T13:33:42.181Z,11.36
2023-03-13T13:38:48.919Z,11.27
2023-03-13T13:44:37.785Z,11.27
2023-03-13T13:49:54.737Z,11.16
2023-03-13T13:55:00.380Z,11.08
2023-03-13T14:00:18.132Z,11.00
2023-03-13T14:05:24.601Z,10.96
2023-03-13T14:10:51.610Z,10.96
2023-03-13T14:15:55.556Z,10.89
2023-03-13T14:21:01.013Z,10.82
2023-03-13T14:26:18.721Z,10.85
2023-03-13T14:31:25.227Z,10.87
2023-03-13T14:36:29.757Z,10.85
2023-03-13T14:41:48.314Z,10.87
2023-03-13T14:46:56.535Z,10.78
2023-03-13T14:52:02.422Z,10.81
2023-03-13T14:57:21.247Z,10.80
2023-03-13T15:02:27.965Z,10.78
2023-03-13T15:07:38.418Z,10.76
2023-03-13T15:12:45.620Z,10.69
2023-03-13T15:17:49.518Z,10.65
2023-03-13T15:22:54.175Z,10.62
2023-03-13T15:27:59.748Z,10.55
2023-03-13T15:33:03.707Z,10.54
2023-03-13T15:38:08.344Z,10.51
2023-03-13T15:43:15.115Z,10.50
2023-03-13T15:48:21.320Z,10.46
2023-03-13T15:53:26.842Z,10.42
2023-03-13T15:58:32.524Z,10.46
2023-03-13T16:03:36.380Z,10.44
2023-03-13T16:08:40.635Z,10.42
2023-03-13T16:13:46.464Z,10.44
2023-03-13T16:18:52.320Z,10.50
2023-03-13T16:23:56.921Z,10.49
2023-03-13T16:29:02.633Z,10.50
2023-03-13T16:34:06.904Z,10.45
2023-03-13T16:39:15.158Z,10.46
2023-03-13T16:44:21.570Z,10.44
2023-03-13T16:49:25.676Z,10.37
2023-03-13T16:54:29.667Z,10.33
2023-03-13T16:59:34.946Z,10.25
2023-03-13T17:04:39.328Z,10.20
2023-03-13T17:09:43.441Z,10.16
2023-03-13T17:14:49.101Z,10.10
2023-03-13T17:19:54.512Z,10.06
2023-03-13T17:24:59.274Z,9.96
2023-03-13T17:30:16.494Z,9.92
2023-03-13T17:35:21.710Z,9.90
2023-03-13T17:40:28.479Z,9.80
2023-03-13T17:45:36.840Z,9.69
2023-03-13T17:50:41.123Z,9.64
2023-03-13T17:55:46.484Z,9.59
2023-03-13T18:00:52.204Z,9.57
2023-03-13T18:05:56.562Z,9.54
2023-03-13T18:11:00.888Z,9.53
2023-03-13T18:16:14.802Z,9.46
2023-03-13T18:21:18.940Z,9.46
2023-03-13T18:26:25.975Z,9.40
2023-03-13T18:31:32.676Z,9.36
2023-03-13T18:36:36.905Z,9.39
2023-03-13T18:41:41.051Z,9.40
2023-03-13T18:46:46.563Z,9.39
2023-03-13T18:51:51.810Z,9.38
2023-03-13T18:56:55.734Z,9.33
2023-03-13T19:02:01.006Z,9.32
2023-03-13T19:07:04.971Z,9.35
2023-03-13T19:12:09.526Z,9.34
2023-03-13T19:17:20.225Z,9.32
2023-03-13T19:22:24.618Z,9.26
2023-03-13T19:27:28.674Z,9.28
2023-03-13T19:32:34.334Z,9.22
2023-03-13T19:37:39.013Z,9.22
2023-03-13T19:42:43.089Z,9.19
2023-03-13T19:47:48.800Z,9.26
2023-03-13T19:52:52.905Z,9.24
2023-03-13T19:57:56.783Z,9.22
2023-03-13T20:03:02.351Z,9.25
2023-03-13T20:08:06.552Z,9.29
2023-03-13T20:13:10.835Z,9.33
2023-03-13T20:18:16.055Z,9.32
2023-03-13T20:23:20.262Z,9.31
2023-03-13T20:28:24.137Z,9.25
2023-03-13T20:33:30.058Z,9.17
2023-03-13T20:38:34.843Z,9.08
2023-03-13T20:43:39.387Z,9.02
2023-03-13T20:48:44.611Z,8.95
2023-03-13T20:53:48.477Z,8.84
2023-03-13T20:58:52.312Z,8.81
2023-03-13T21:03:57.557Z,8.71
2023-03-13T21:09:01.587Z,8.60
2023-03-13T21:14:05.678Z,8.57
2023-03-13T21:19:11.180Z,8.50
2023-03-13T21:24:15.094Z,8.43
2023-03-13T21:29:19.173Z,8.43
2023-03-13T21:34:25.219Z,8.41
2023-03-13T21:39:29.306Z,8.38
2023-03-13T21:44:33.172Z,8.32
2023-03-13T21:49:38.796Z,8.28
2023-03-13T21:54:42.880Z,8.27
2023-03-13T21:59:46.734Z,8.26
2023-03-13T22:04:51.996Z,8.25
2023-03-13T22:09:56.366Z,8.23
2023-03-13T22:15:00.397Z,8.15
2023-03-13T22:20:07.092Z,8.11
2023-03-13T22:25:11.157Z,8.04
2023-03-13T22:30:15.687Z,7.98
2023-03-13T22:35:21.357Z,7.92
2023-03-13T22:40:25.286Z,7.90
2023-03-13T22:45:30.500Z,7.84
2023-03-13T22:50:36.092Z,7.81
2023-03-13T22:55:40.366Z,7.77
2023-03-13T23:00:44.481Z,7.75
2023-03-13T23:05:49.841Z,7.74
2023-03-13T23:10:53.775Z,7.74
2023-03-13T23:15:58.238Z,7.71
2023-03-13T23:21:07.245Z,7.69
2023-03-13T23:26:13.994Z,7.66
2023-03-13T23:31:20.118Z,7.63
2023-03-13T23:36:26.587Z,7.62
2023-03-13T23:41:30.484Z,7.58
2023-03-13T23:46:34.566Z,7.56
2023-03-13T23:51:40.049Z,7.47
2023-03-13T23:56:44.276Z,7.39
